sensor_id;sensor_type;location;lat;lon;timestamp;pressure;altitude;pressure_sealevel;temperature;humidity
12949;BME280;6539;49.476;8.484;2023-07-29T00:00:06;99973.56;;;19.36;100.00
12949;BME280;6539;49.476;8.484;2023-07-29T00:02:53;99969.66;;;19.34;100.00
12949;BME280;6539;49.476;8.484;2023-07-29T00:05:40;99980.34;;;19.35;100.00
12949;BME280;6539;49.476;8.484;2023-07-29T00:08:29;99984.97;;;19.38;100.00
12949;BME280;6539;49.476;8.484;2023-07-29T00:11:15;99977.38;;;19.39;100.00
12949;BME280;6539;49.476;8.484;2023-07-29T00:14:05;99982.78;;;19.42;100.00
12949;BME280;6539;49.476;8.484;2023-07-29T00:16:51;99976.25;;;19.45;100.00
12949;BME280;6539;49.476;8.484;2023-07-29T00:19:39;99976.53;;;19.47;100.00
12949;BME280;6539;49.476;8.484;2023-07-29T00:22:25;99972.72;;;19.45;100.00
12949;BME280;6539;49.476;8.484;2023-07-29T00:25:11;99967.78;;;19.40;100.00
12949;BME280;6539;49.476;8.484;2023-07-29T00:27:59;99952.97;;;19.34;100.00
12949;BME280;6539;49.476;8.484;2023-07-29T00:30:45;99953.56;;;19.38;100.00
12949;BME280;6539;49.476;8.484;2023-07-29T00:33:35;99951.13;;;19.31;100.00
12949;BME280;6539;49.476;8.484;2023-07-29T00:36:23;99948.34;;;19.31;100.00
12949;BME280;6539;49.476;8.484;2023-07-29T00:39:09;99948.50;;;19.36;100.00
12949;BME280;6539;49.476;8.484;2023-07-29T00:41:55;99933.34;;;19.28;100.00
12949;BME280;6539;49.476;8.484;2023-07-29T00:44:44;99927.50;;;19.26;100.00
12949;BME280;6539;49.476;8.484;2023-07-29T00:47:32;99919.16;;;19.26;100.00
12949;BME280;6539;49.476;8.484;2023-07-29T00:50:21;99920.41;;;19.25;100.00
12949;BME280;6539;49.476;8.484;2023-07-29T00:53:07;99929.69;;;19.22;100.00
12949;BME280;6539;49.476;8.484;2023-07-29T00:55:58;99930.47;;;19.23;100.00
12949;BME280;6539;49.476;8.484;2023-07-29T00:58:44;99933.75;;;19.21;100.00
12949;BME280;6539;49.476;8.484;2023-07-29T01:01:31;99930.75;;;19.25;100.00
12949;BME280;6539;49.476;8.484;2023-07-29T01:04:19;99921.63;;;19.24;100.00
12949;BME280;6539;49.476;8.484;2023-07-29T01:08:05;99933.19;;;19.32;100.00
12949;BME280;6539;49.476;8.484;2023-07-29T01:13:44;99932.25;;;19.35;100.00
12949;BME280;6539;49.476;8.484;2023-07-29T01:16:52;99922.91;;;19.23;100.00
12949;BME280;6539;49.476;8.484;2023-07-29T01:20:04;99922.09;;;19.08;100.00
12949;BME280;6539;49.476;8.484;2023-07-29T01:22:52;99920.25;;;19.05;100.00
12949;BME280;6539;49.476;8.484;2023-07-29T01:25:39;99919.94;;;19.03;100.00
12949;BME280;6539;49.476;8.484;2023-07-29T01:28:28;99916.56;;;18.99;100.00
12949;BME280;6539;49.476;8.484;2023-07-29T01:31:32;99912.72;;;18.96;100.00
12949;BME280;6539;49.476;8.484;2023-07-29T01:34:45;99908.41;;;18.95;100.00
12949;BME280;6539;49.476;8.484;2023-07-29T01:37:37;99902.09;;;18.95;100.00
12949;BME280;6539;49.476;8.484;2023-07-29T01:40:30;99912.13;;;18.92;100.00
12949;BME280;6539;49.476;8.484;2023-07-29T01:43:18;99904.56;;;18.93;100.00
12949;BME280;6539;49.476;8.484;2023-07-29T01:46:10;99911.06;;;18.90;100.00
12949;BME280;6539;49.476;8.484;2023-07-29T01:48:57;99906.75;;;18.89;100.00
12949;BME280;6539;49.476;8.484;2023-07-29T01:51:45;99908.00;;;18.88;100.00
12949;BME280;6539;49.476;8.484;2023-07-29T01:54:34;99898.41;;;18.89;100.00
12949;BME280;6539;49.476;8.484;2023-07-29T01:57:22;99894.88;;;18.88;100.00
12949;BME280;6539;49.476;8.484;2023-07-29T02:00:11;99896.38;;;18.89;100.00
12949;BME280;6539;49.476;8.484;2023-07-29T02:02:59;99894.38;;;18.90;100.00
12949;BME280;6539;49.476;8.484;2023-07-29T02:05:45;99896.22;;;18.93;100.00
12949;BME280;6539;49.476;8.484;2023-07-29T02:08:31;99895.44;;;18.92;100.00
12949;BME280;6539;49.476;8.484;2023-07-29T02:11:18;99890.38;;;18.91;100.00
12949;BME280;6539;49.476;8.484;2023-07-29T02:14:13;99881.72;;;18.89;100.00
12949;BME280;6539;49.476;8.484;2023-07-29T02:16:59;99886.03;;;18.90;100.00
12949;BME280;6539;49.476;8.484;2023-07-29T02:19:45;99891.59;;;18.90;100.00
12949;BME280;6539;49.476;8.484;2023-07-29T02:22:31;99887.59;;;18.91;100.00
12949;BME280;6539;49.476;8.484;2023-07-29T02:25:17;99893.16;;;18.91;100.00
12949;BME280;6539;49.476;8.484;2023-07-29T02:28:03;99880.94;;;18.88;100.00
12949;BME280;6539;49.476;8.484;2023-07-29T02:31:21;99884.50;;;18.89;100.00
12949;BME280;6539;49.476;8.484;2023-07-29T02:34:08;99885.09;;;18.93;100.00
12949;BME280;6539;49.476;8.484;2023-07-29T02:36:56;99871.63;;;18.91;100.00
12949;BME280;6539;49.476;8.484;2023-07-29T02:39:47;99877.97;;;18.92;100.00
12949;BME280;6539;49.476;8.484;2023-07-29T02:42:33;99884.31;;;18.92;100.00
12949;BME280;6539;49.476;8.484;2023-07-29T02:45:19;99875.19;;;18.92;100.00
12949;BME280;6539;49.476;8.484;2023-07-29T02:48:07;99882.03;;;18.91;100.00
12949;BME280;6539;49.476;8.484;2023-07-29T02:50:56;99880.66;;;18.86;100.00
12949;BME280;6539;49.476;8.484;2023-07-29T02:53:44;99876.81;;;18.84;100.00
12949;BME280;6539;49.476;8.484;2023-07-29T02:56:32;99867.41;;;18.81;100.00
12949;BME280;6539;49.476;8.484;2023-07-29T02:59:19;99865.88;;;18.80;100.00
12949;BME280;6539;49.476;8.484;2023-07-29T03:02:12;99869.09;;;18.79;100.00
12949;BME280;6539;49.476;8.484;2023-07-29T03:05:00;99866.81;;;18.77;100.00
12949;BME280;6539;49.476;8.484;2023-07-29T03:07:46;99864.31;;;18.79;100.00
12949;BME280;6539;49.476;8.484;2023-07-29T03:10:35;99862.03;;;18.78;100.00
12949;BME280;6539;49.476;8.484;2023-07-29T03:13:22;99855.50;;;18.81;100.00
12949;BME280;6539;49.476;8.484;2023-07-29T03:16:16;99842.84;;;18.80;100.00
12949;BME280;6539;49.476;8.484;2023-07-29T03:19:03;99845.16;;;18.81;100.00
12949;BME280;6539;49.476;8.484;2023-07-29T03:21:49;99853.28;;;18.85;100.00
12949;BME280;6539;49.476;8.484;2023-07-29T03:24:38;99857.03;;;18.82;100.00
12949;BME280;6539;49.476;8.484;2023-07-29T03:27:31;99855.78;;;18.83;100.00
12949;BME280;6539;49.476;8.484;2023-07-29T03:30:21;99846.09;;;18.78;100.00
12949;BME280;6539;49.476;8.484;2023-07-29T03:33:09;99841.28;;;18.79;100.00
12949;BME280;6539;49.476;8.484;2023-07-29T03:36:00;99834.97;;;18.78;100.00
12949;BME280;6539;49.476;8.484;2023-07-29T03:38:49;99816.94;;;18.74;100.00
12949;BME280;6539;49.476;8.484;2023-07-29T03:41:37;99818.75;;;18.77;100.00
12949;BME280;6539;49.476;8.484;2023-07-29T03:44:25;99808.69;;;18.79;100.00
12949;BME280;6539;49.476;8.484;2023-07-29T03:47:11;99807.28;;;18.84;100.00
12949;BME280;6539;49.476;8.484;2023-07-29T03:49:57;99821.38;;;18.80;100.00
12949;BME280;6539;49.476;8.484;2023-07-29T03:52:43;99824.44;;;18.82;100.00
12949;BME280;6539;49.476;8.484;2023-07-29T03:55:32;99826.75;;;18.84;100.00
12949;BME280;6539;49.476;8.484;2023-07-29T03:58:18;99839.28;;;18.79;100.00
12949;BME280;6539;49.476;8.484;2023-07-29T04:01:04;99844.66;;;18.83;100.00
12949;BME280;6539;49.476;8.484;2023-07-29T04:03:50;99836.50;;;18.79;100.00
12949;BME280;6539;49.476;8.484;2023-07-29T04:06:37;99845.91;;;18.82;100.00
12949;BME280;6539;49.476;8.484;2023-07-29T04:09:23;99849.47;;;18.82;100.00
12949;BME280;6539;49.476;8.484;2023-07-29T04:12:10;99836.91;;;18.87;100.00
12949;BME280;6539;49.476;8.484;2023-07-29T04:14:56;99840.16;;;18.85;100.00
12949;BME280;6539;49.476;8.484;2023-07-29T04:17:42;99837.22;;;18.89;100.00
12949;BME280;6539;49.476;8.484;2023-07-29T04:20:30;99837.22;;;18.89;100.00
12949;BME280;6539;49.476;8.484;2023-07-29T04:23:17;99836.16;;;18.86;100.00
12949;BME280;6539;49.476;8.484;2023-07-29T04:26:03;99844.59;;;18.92;100.00
12949;BME280;6539;49.476;8.484;2023-07-29T04:28:49;99835.97;;;18.90;100.00
12949;BME280;6539;49.476;8.484;2023-07-29T04:31:35;99839.22;;;18.88;100.00
12949;BME280;6539;49.476;8.484;2023-07-29T04:34:21;99841.81;;;18.92;100.00
12949;BME280;6539;49.476;8.484;2023-07-29T04:37:13;99834.72;;;18.91;100.00
12949;BME280;6539;49.476;8.484;2023-07-29T04:40:02;99840.75;;;18.89;100.00
12949;BME280;6539;49.476;8.484;2023-07-29T04:42:49;99831.16;;;18.90;100.00
12949;BME280;6539;49.476;8.484;2023-07-29T04:45:35;99841.34;;;18.93;100.00
12949;BME280;6539;49.476;8.484;2023-07-29T04:48:21;99841.16;;;18.97;100.00
12949;BME280;6539;49.476;8.484;2023-07-29T04:51:11;99843.38;;;18.93;100.00
12949;BME280;6539;49.476;8.484;2023-07-29T04:53:58;99839.16;;;18.97;100.00
12949;BME280;6539;49.476;8.484;2023-07-29T04:56:48;99845.66;;;18.94;100.00
12949;BME280;6539;49.476;8.484;2023-07-29T04:59:37;99860.81;;;18.93;100.00
12949;BME280;6539;49.476;8.484;2023-07-29T05:02:23;99862.34;;;18.94;100.00
12949;BME280;6539;49.476;8.484;2023-07-29T05:05:14;99861.59;;;18.94;100.00
12949;BME280;6539;49.476;8.484;2023-07-29T05:08:02;99846.59;;;18.91;100.00
12949;BME280;6539;49.476;8.484;2023-07-29T05:10:52;99840.28;;;18.91;100.00
12949;BME280;6539;49.476;8.484;2023-07-29T05:13:39;99833.47;;;18.92;100.00
12949;BME280;6539;49.476;8.484;2023-07-29T05:16:28;99842.09;;;18.94;100.00
12949;BME280;6539;49.476;8.484;2023-07-29T05:19:16;99839.31;;;18.94;100.00
12949;BME280;6539;49.476;8.484;2023-07-29T05:22:07;99850.09;;;19.01;100.00
12949;BME280;6539;49.476;8.484;2023-07-29T05:24:53;99851.63;;;19.02;100.00
12949;BME280;6539;49.476;8.484;2023-07-29T05:27:39;99853.47;;;19.05;100.00
12949;BME280;6539;49.476;8.484;2023-07-29T05:30:29;99854.25;;;19.06;100.00
12949;BME280;6539;49.476;8.484;2023-07-29T05:33:19;99855.19;;;19.02;100.00
12949;BME280;6539;49.476;8.484;2023-07-29T05:36:06;99859.59;;;19.09;100.00
12949;BME280;6539;49.476;8.484;2023-07-29T05:38:52;99867.31;;;19.14;100.00
12949;BME280;6539;49.476;8.484;2023-07-29T05:41:38;99870.97;;;19.20;100.00
12949;BME280;6539;49.476;8.484;2023-07-29T05:44:24;99872.03;;;19.23;100.00
12949;BME280;6539;49.476;8.484;2023-07-29T05:47:13;99872.59;;;19.27;100.00
12949;BME280;6539;49.476;8.484;2023-07-29T05:50:03;99863.69;;;19.23;100.00
12949;BME280;6539;49.476;8.484;2023-07-29T05:52:52;99862.34;;;19.33;100.00
12949;BME280;6539;49.476;8.484;2023-07-29T05:55:38;99873.03;;;19.34;100.00
12949;BME280;6539;49.476;8.484;2023-07-29T05:58:27;99864.50;;;19.38;100.00
12949;BME280;6539;49.476;8.484;2023-07-29T06:01:13;99869.28;;;19.37;100.00
12949;BME280;6539;49.476;8.484;2023-07-29T06:04:01;99869.28;;;19.37;100.00
12949;BME280;6539;49.476;8.484;2023-07-29T06:06:50;99867.66;;;19.45;100.00
12949;BME280;6539;49.476;8.484;2023-07-29T06:09:41;99861.84;;;19.58;100.00
12949;BME280;6539;49.476;8.484;2023-07-29T06:12:29;99866.41;;;19.61;100.00
12949;BME280;6539;49.476;8.484;2023-07-29T06:15:15;99858.19;;;19.66;100.00
12949;BME280;6539;49.476;8.484;2023-07-29T06:18:04;99863.75;;;19.66;100.00
12949;BME280;6539;49.476;8.484;2023-07-29T06:20:50;99862.69;;;19.64;100.00
12949;BME280;6539;49.476;8.484;2023-07-29T06:23:37;99856.34;;;19.63;100.00
12949;BME280;6539;49.476;8.484;2023-07-29T06:26:25;99855.47;;;19.72;100.00
12949;BME280;6539;49.476;8.484;2023-07-29T06:29:11;99853.84;;;19.80;100.00
12949;BME280;6539;49.476;8.484;2023-07-29T06:31:58;99863.81;;;19.87;100.00
12949;BME280;6539;49.476;8.484;2023-07-29T06:34:46;99873.25;;;19.89;100.00
12949;BME280;6539;49.476;8.484;2023-07-29T06:37:32;99864.69;;;19.93;100.00
12949;BME280;6539;49.476;8.484;2023-07-29T06:40:19;99872.38;;;19.98;100.00
12949;BME280;6539;49.476;8.484;2023-07-29T06:43:07;99878.50;;;20.02;100.00
12949;BME280;6539;49.476;8.484;2023-07-29T06:45:56;99881.41;;;20.07;100.00
12949;BME280;6539;49.476;8.484;2023-07-29T06:48:42;99867.03;;;20.14;100.00
12949;BME280;6539;49.476;8.484;2023-07-29T06:51:28;99870.81;;;20.26;100.00
12949;BME280;6539;49.476;8.484;2023-07-29T06:54:24;99875.00;;;20.36;100.00
12949;BME280;6539;49.476;8.484;2023-07-29T06:57:16;99869.25;;;20.39;100.00
12949;BME280;6539;49.476;8.484;2023-07-29T07:00:03;99872.47;;;20.52;100.00
12949;BME280;6539;49.476;8.484;2023-07-29T07:02:49;99874.09;;;20.59;100.00
12949;BME280;6539;49.476;8.484;2023-07-29T07:05:38;99882.53;;;20.65;100.00
12949;BME280;6539;49.476;8.484;2023-07-29T07:08:24;99881.84;;;20.70;100.00
12949;BME280;6539;49.476;8.484;2023-07-29T07:11:10;99886.25;;;20.76;100.00
12949;BME280;6539;49.476;8.484;2023-07-29T07:13:56;99893.34;;;20.77;100.00
12949;BME280;6539;49.476;8.484;2023-07-29T07:16:42;99891.13;;;20.81;100.00
12949;BME280;6539;49.476;8.484;2023-07-29T07:19:33;99902.13;;;20.90;100.00
12949;BME280;6539;49.476;8.484;2023-07-29T07:22:19;99882.41;;;20.94;100.00
12949;BME280;6539;49.476;8.484;2023-07-29T07:25:05;99885.75;;;20.98;100.00
12949;BME280;6539;49.476;8.484;2023-07-29T07:27:52;99888.06;;;20.99;100.00
12949;BME280;6539;49.476;8.484;2023-07-29T07:33:27;99906.34;;;21.00;100.00
12949;BME280;6539;49.476;8.484;2023-07-29T07:36:13;99904.97;;;21.10;100.00
12949;BME280;6539;49.476;8.484;2023-07-29T07:38:59;99904.75;;;21.14;100.00
12949;BME280;6539;49.476;8.484;2023-07-29T07:41:45;99904.84;;;21.19;100.00
12949;BME280;6539;49.476;8.484;2023-07-29T07:44:33;99903.38;;;21.24;100.00
12949;BME280;6539;49.476;8.484;2023-07-29T07:47:19;99901.25;;;21.39;100.00
12949;BME280;6539;49.476;8.484;2023-07-29T07:50:06;99901.84;;;21.49;100.00
12949;BME280;6539;49.476;8.484;2023-07-29T07:52:52;99893.03;;;21.56;100.00
12949;BME280;6539;49.476;8.484;2023-07-29T07:55:40;99879.63;;;21.60;100.00
12949;BME280;6539;49.476;8.484;2023-07-29T07:58:26;99869.53;;;21.68;100.00
12949;BME280;6539;49.476;8.484;2023-07-29T08:01:14;99883.72;;;21.64;100.00
12949;BME280;6539;49.476;8.484;2023-07-29T08:04:00;99889.69;;;21.77;100.00
12949;BME280;6539;49.476;8.484;2023-07-29T08:06:46;99897.16;;;21.86;100.00
12949;BME280;6539;49.476;8.484;2023-07-29T08:09:39;99892.81;;;21.85;100.00
12949;BME280;6539;49.476;8.484;2023-07-29T08:12:28;99904.28;;;21.87;100.00
12949;BME280;6539;49.476;8.484;2023-07-29T08:15:16;99891.84;;;21.88;100.00
12949;BME280;6539;49.476;8.484;2023-07-29T08:18:02;99902.31;;;21.93;100.00
12949;BME280;6539;49.476;8.484;2023-07-29T08:21:00;99902.06;;;21.91;100.00
12949;BME280;6539;49.476;8.484;2023-07-29T08:23:49;99902.59;;;21.95;100.00
12949;BME280;6539;49.476;8.484;2023-07-29T08:26:37;99909.13;;;21.86;100.00
12949;BME280;6539;49.476;8.484;2023-07-29T08:29:28;99894.94;;;21.70;100.00
12949;BME280;6539;49.476;8.484;2023-07-29T08:32:16;99905.41;;;21.75;100.00
12949;BME280;6539;49.476;8.484;2023-07-29T08:35:03;99901.72;;;21.83;100.00
12949;BME280;6539;49.476;8.484;2023-07-29T08:37:49;99895.06;;;21.81;100.00
12949;BME280;6539;49.476;8.484;2023-07-29T08:40:38;99907.25;;;21.78;100.00
12949;BME280;6539;49.476;8.484;2023-07-29T08:43:32;99896.53;;;22.02;100.00
12949;BME280;6539;49.476;8.484;2023-07-29T08:46:20;99894.38;;;22.17;100.00
12949;BME280;6539;49.476;8.484;2023-07-29T08:49:11;99900.16;;;22.08;100.00
12949;BME280;6539;49.476;8.484;2023-07-29T08:51:59;99914.06;;;22.02;100.00
12949;BME280;6539;49.476;8.484;2023-07-29T08:54:50;99932.28;;;22.24;100.00
12949;BME280;6539;49.476;8.484;2023-07-29T08:57:38;99936.56;;;22.45;100.00
12949;BME280;6539;49.476;8.484;2023-07-29T09:00:27;99930.81;;;22.59;99.55
12949;BME280;6539;49.476;8.484;2023-07-29T09:03:14;99930.91;;;22.70;100.00
12949;BME280;6539;49.476;8.484;2023-07-29T09:06:02;99936.84;;;22.89;100.00
12949;BME280;6539;49.476;8.484;2023-07-29T09:08:51;99940.69;;;22.97;100.00
12949;BME280;6539;49.476;8.484;2023-07-29T09:11:42;99935.94;;;23.14;99.94
12949;BME280;6539;49.476;8.484;2023-07-29T09:14:31;99928.56;;;23.17;98.71
12949;BME280;6539;49.476;8.484;2023-07-29T09:17:17;99923.47;;;23.15;94.54
12949;BME280;6539;49.476;8.484;2023-07-29T09:20:09;99921.19;;;23.19;96.29
12949;BME280;6539;49.476;8.484;2023-07-29T09:22:58;99930.38;;;23.20;94.77
12949;BME280;6539;49.476;8.484;2023-07-29T09:25:48;99921.75;;;23.29;94.31
12949;BME280;6539;49.476;8.484;2023-07-29T09:28:39;99914.66;;;23.33;91.99
12949;BME280;6539;49.476;8.484;2023-07-29T09:31:29;99915.38;;;23.28;93.17
12949;BME280;6539;49.476;8.484;2023-07-29T09:34:16;99900.34;;;23.31;94.71
12949;BME280;6539;49.476;8.484;2023-07-29T09:37:06;99905.81;;;23.63;94.11
12949;BME280;6539;49.476;8.484;2023-07-29T09:39:52;99901.25;;;23.98;85.48
12949;BME280;6539;49.476;8.484;2023-07-29T09:42:38;99903.09;;;24.12;82.98
12949;BME280;6539;49.476;8.484;2023-07-29T09:45:26;99897.22;;;24.21;81.28
12949;BME280;6539;49.476;8.484;2023-07-29T09:48:12;99909.47;;;24.18;81.79
12949;BME280;6539;49.476;8.484;2023-07-29T09:50:59;99895.13;;;24.55;79.18
12949;BME280;6539;49.476;8.484;2023-07-29T09:53:51;99894.34;;;24.71;76.37
12949;BME280;6539;49.476;8.484;2023-07-29T09:56:42;99893.59;;;24.60;76.13
12949;BME280;6539;49.476;8.484;2023-07-29T09:59:36;99881.38;;;24.52;77.25
12949;BME280;6539;49.476;8.484;2023-07-29T10:02:23;99889.50;;;24.55;74.52
12949;BME280;6539;49.476;8.484;2023-07-29T10:05:11;99894.88;;;24.48;74.83
12949;BME280;6539;49.476;8.484;2023-07-29T10:07:57;99898.72;;;24.56;73.63
12949;BME280;6539;49.476;8.484;2023-07-29T10:10:43;99907.09;;;24.61;71.89
12949;BME280;6539;49.476;8.484;2023-07-29T10:13:29;99903.81;;;24.57;73.49
12949;BME280;6539;49.476;8.484;2023-07-29T10:16:16;99895.66;;;24.54;73.38
12949;BME280;6539;49.476;8.484;2023-07-29T10:19:04;99896.41;;;24.60;72.40
12949;BME280;6539;49.476;8.484;2023-07-29T10:21:58;99895.31;;;24.74;72.57
12949;BME280;6539;49.476;8.484;2023-07-29T10:24:49;99899.66;;;24.91;71.59
12949;BME280;6539;49.476;8.484;2023-07-29T10:27:56;99885.00;;;25.15;67.85
12949;BME280;6539;49.476;8.484;2023-07-29T10:30:47;99890.25;;;25.35;65.66
12949;BME280;6539;49.476;8.484;2023-07-29T10:33:34;99882.91;;;25.21;65.91
12949;BME280;6539;49.476;8.484;2023-07-29T10:36:23;99882.13;;;25.26;66.88
12949;BME280;6539;49.476;8.484;2023-07-29T10:39:10;99883.56;;;25.85;63.32
12949;BME280;6539;49.476;8.484;2023-07-29T10:41:57;99879.44;;;26.21;61.96
12949;BME280;6539;49.476;8.484;2023-07-29T10:44:48;99869.50;;;26.44;60.99
12949;BME280;6539;49.476;8.484;2023-07-29T10:47:35;99859.31;;;26.65;60.70
12949;BME280;6539;49.476;8.484;2023-07-29T10:50:22;99865.41;;;26.93;57.63
12949;BME280;6539;49.476;8.484;2023-07-29T10:53:08;99845.88;;;27.33;54.91
12949;BME280;6539;49.476;8.484;2023-07-29T10:55:55;99859.47;;;27.53;55.34
12949;BME280;6539;49.476;8.484;2023-07-29T10:58:43;99858.03;;;27.28;52.81
12949;BME280;6539;49.476;8.484;2023-07-29T11:01:31;99849.56;;;27.46;52.06
12949;BME280;6539;49.476;8.484;2023-07-29T11:10:04;99844.38;;;27.32;51.87
12949;BME280;6539;49.476;8.484;2023-07-29T11:12:52;99850.63;;;27.06;50.72
12949;BME280;6539;49.476;8.484;2023-07-29T11:15:39;99850.38;;;26.85;51.59
12949;BME280;6539;49.476;8.484;2023-07-29T11:18:32;99850.91;;;27.02;52.77
12949;BME280;6539;49.476;8.484;2023-07-29T11:21:22;99845.75;;;27.62;51.37
12949;BME280;6539;49.476;8.484;2023-07-29T11:24:17;99847.16;;;28.45;48.43
12949;BME280;6539;49.476;8.484;2023-07-29T11:27:04;99848.72;;;28.59;48.02
12949;BME280;6539;49.476;8.484;2023-07-29T11:30:01;99848.56;;;28.52;47.62
12949;BME280;6539;49.476;8.484;2023-07-29T11:32:50;99842.69;;;28.50;46.93
12949;BME280;6539;49.476;8.484;2023-07-29T11:35:39;99845.84;;;28.33;47.76
12949;BME280;6539;49.476;8.484;2023-07-29T11:38:25;99829.56;;;28.39;47.83
12949;BME280;6539;49.476;8.484;2023-07-29T11:41:12;99836.94;;;28.29;47.62
12949;BME280;6539;49.476;8.484;2023-07-29T11:43:58;99841.41;;;28.64;47.60
12949;BME280;6539;49.476;8.484;2023-07-29T11:46:44;99833.88;;;29.06;45.57
12949;BME280;6539;49.476;8.484;2023-07-29T11:49:30;99830.50;;;28.94;45.78
12949;BME280;6539;49.476;8.484;2023-07-29T11:52:18;99835.72;;;29.03;44.33
12949;BME280;6539;49.476;8.484;2023-07-29T11:55:05;99841.28;;;29.09;43.47
12949;BME280;6539;49.476;8.484;2023-07-29T11:57:54;99841.09;;;28.94;43.69
12949;BME280;6539;49.476;8.484;2023-07-29T12:00:41;99830.53;;;28.42;44.76
12949;BME280;6539;49.476;8.484;2023-07-29T12:03:29;99830.28;;;28.14;46.31
12949;BME280;6539;49.476;8.484;2023-07-29T12:06:16;99836.03;;;28.21;45.69
12949;BME280;6539;49.476;8.484;2023-07-29T12:09:03;99840.72;;;28.45;44.66
12949;BME280;6539;49.476;8.484;2023-07-29T12:11:55;99837.34;;;29.12;43.53
12949;BME280;6539;49.476;8.484;2023-07-29T12:14:46;99837.38;;;28.86;43.03
12949;BME280;6539;49.476;8.484;2023-07-29T12:17:40;99827.19;;;28.70;44.35
12949;BME280;6539;49.476;8.484;2023-07-29T12:20:29;99832.13;;;29.03;41.49
12949;BME280;6539;49.476;8.484;2023-07-29T12:23:16;99835.94;;;29.73;39.72
12949;BME280;6539;49.476;8.484;2023-07-29T12:26:04;99835.94;;;30.63;37.08
12949;BME280;6539;49.476;8.484;2023-07-29T12:28:50;99814.25;;;31.01;35.58
12949;BME280;6539;49.476;8.484;2023-07-29T12:31:37;99831.75;;;31.35;34.90
12949;BME280;6539;49.476;8.484;2023-07-29T12:34:26;99829.06;;;31.22;34.49
12949;BME280;6539;49.476;8.484;2023-07-29T12:37:14;99840.03;;;31.18;34.53
12949;BME280;6539;49.476;8.484;2023-07-29T12:40:00;99838.28;;;31.81;33.75
12949;BME280;6539;49.476;8.484;2023-07-29T12:42:46;99836.06;;;32.10;33.56
12949;BME280;6539;49.476;8.484;2023-07-29T12:45:37;99842.06;;;32.44;32.92
12949;BME280;6539;49.476;8.484;2023-07-29T12:48:27;99824.38;;;32.83;32.77
12949;BME280;6539;49.476;8.484;2023-07-29T12:51:13;99828.09;;;33.08;31.60
12949;BME280;6539;49.476;8.484;2023-07-29T12:53:59;99828.19;;;33.26;31.21
12949;BME280;6539;49.476;8.484;2023-07-29T12:56:48;99840.19;;;32.47;31.89
12949;BME280;6539;49.476;8.484;2023-07-29T12:59:34;99831.66;;;30.41;34.83
12949;BME280;6539;49.476;8.484;2023-07-29T13:02:20;99834.53;;;29.79;36.13
12949;BME280;6539;49.476;8.484;2023-07-29T13:05:10;99836.31;;;29.69;36.71
12949;BME280;6539;49.476;8.484;2023-07-29T13:07:57;99828.84;;;29.25;37.84
12949;BME280;6539;49.476;8.484;2023-07-29T13:10:43;99830.66;;;28.76;38.62
12949;BME280;6539;49.476;8.484;2023-07-29T13:13:30;99824.22;;;28.49;38.79
12949;BME280;6539;49.476;8.484;2023-07-29T13:16:18;99831.28;;;28.55;38.78
12949;BME280;6539;49.476;8.484;2023-07-29T13:19:09;99829.34;;;28.50;38.77
12949;BME280;6539;49.476;8.484;2023-07-29T13:21:55;99839.44;;;28.46;39.10
12949;BME280;6539;49.476;8.484;2023-07-29T13:24:43;99848.38;;;28.76;38.81
12949;BME280;6539;49.476;8.484;2023-07-29T13:27:29;99834.56;;;28.86;39.13
12949;BME280;6539;49.476;8.484;2023-07-29T13:30:15;99835.75;;;28.51;39.10
12949;BME280;6539;49.476;8.484;2023-07-29T13:33:01;99833.81;;;28.72;39.12
12949;BME280;6539;49.476;8.484;2023-07-29T13:35:47;99823.13;;;29.92;37.41
12949;BME280;6539;49.476;8.484;2023-07-29T13:38:36;99828.19;;;30.99;35.43
12949;BME280;6539;49.476;8.484;2023-07-29T13:41:22;99835.72;;;30.53;36.51
12949;BME280;6539;49.476;8.484;2023-07-29T13:44:10;99835.84;;;29.78;36.83
12949;BME280;6539;49.476;8.484;2023-07-29T13:46:56;99828.59;;;28.89;38.33
12949;BME280;6539;49.476;8.484;2023-07-29T13:49:42;99825.28;;;28.20;40.29
12949;BME280;6539;49.476;8.484;2023-07-29T13:52:28;99829.66;;;27.89;41.54
12949;BME280;6539;49.476;8.484;2023-07-29T13:55:16;99827.50;;;27.82;42.41
12949;BME280;6539;49.476;8.484;2023-07-29T13:58:03;99826.38;;;27.85;42.75
12949;BME280;6539;49.476;8.484;2023-07-29T14:00:49;99823.50;;;27.90;42.36
12949;BME280;6539;49.476;8.484;2023-07-29T14:03:35;99839.94;;;27.86;42.96
12949;BME280;6539;49.476;8.484;2023-07-29T14:06:21;99827.44;;;27.69;43.62
12949;BME280;6539;49.476;8.484;2023-07-29T14:09:08;99822.19;;;27.60;43.03
12949;BME280;6539;49.476;8.484;2023-07-29T14:11:56;99827.34;;;27.43;43.71
12949;BME280;6539;49.476;8.484;2023-07-29T14:14:45;99830.66;;;27.60;43.89
12949;BME280;6539;49.476;8.484;2023-07-29T14:17:31;99837.41;;;27.70;43.52
12949;BME280;6539;49.476;8.484;2023-07-29T14:20:17;99829.63;;;27.44;44.41
12949;BME280;6539;49.476;8.484;2023-07-29T14:23:03;99845.53;;;27.42;44.40
12949;BME280;6539;49.476;8.484;2023-07-29T14:25:52;99847.53;;;27.47;44.58
12949;BME280;6539;49.476;8.484;2023-07-29T14:28:38;99847.31;;;27.45;43.95
12949;BME280;6539;49.476;8.484;2023-07-29T14:31:24;99838.44;;;27.54;43.96
12949;BME280;6539;49.476;8.484;2023-07-29T14:34:10;99833.88;;;27.51;43.59
12949;BME280;6539;49.476;8.484;2023-07-29T14:36:56;99839.97;;;27.55;44.08
12949;BME280;6539;49.476;8.484;2023-07-29T14:39:47;99834.16;;;27.66;44.43
12949;BME280;6539;49.476;8.484;2023-07-29T14:42:33;99837.56;;;27.77;42.83
12949;BME280;6539;49.476;8.484;2023-07-29T14:45:19;99839.56;;;27.64;43.81
12949;BME280;6539;49.476;8.484;2023-07-29T14:48:05;99832.66;;;27.28;44.33
12949;BME280;6539;49.476;8.484;2023-07-29T14:50:51;99826.56;;;27.05;45.66
12949;BME280;6539;49.476;8.484;2023-07-29T14:53:40;99834.00;;;27.02;46.16
12949;BME280;6539;49.476;8.484;2023-07-29T14:56:29;99829.06;;;27.27;46.05
12949;BME280;6539;49.476;8.484;2023-07-29T14:59:17;99829.78;;;27.65;45.66
12949;BME280;6539;49.476;8.484;2023-07-29T15:02:04;99824.78;;;27.58;45.03
12949;BME280;6539;49.476;8.484;2023-07-29T15:04:55;99827.06;;;27.59;44.87
12949;BME280;6539;49.476;8.484;2023-07-29T15:07:45;99818.84;;;27.61;45.06